Time;durP1;ratioP1;P1;durP2;ratioP2;P2;SDS_P1;SDS_P2;PMS_P1;PMS_P2;Temp;Humidity;BMP_temperature;BMP_pressure;BME280_temperature;BME280_humidity;BME280_pressure;Samples;Min_cycle;Max_cycle;Signal;HPM_P1;HPM_P2
2021/07/04 00:01:14;;;;;;;5.00;4.50;;;;;;;19.03;82.47;96466.53;5101801;28;20180;-55
2021/07/04 00:03:40;;;;;;;5.23;4.60;;;;;;;18.96;83.22;96466.09;5101616;28;20181;-56
2021/07/04 00:06:06;;;;;;;4.73;4.30;;;;;;;18.84;83.62;96468.38;5093587;28;20196;-55
2021/07/04 00:08:31;;;;;;;5.27;4.23;;;;;;;18.72;84.62;96455.56;5109119;28;20637;-54
2021/07/04 00:11:01;;;;;;;4.60;4.20;;;;;;;18.77;84.41;96452.81;5101381;28;20537;-53
2021/07/04 00:13:29;;;;;;;4.87;4.47;;;;;;;18.73;84.74;96458.97;5105012;28;20180;-54
2021/07/04 00:15:55;;;;;;;4.88;4.40;;;;;;;18.71;84.96;96464.59;5104424;28;20641;-56
2021/07/04 00:18:23;;;;;;;4.77;4.30;;;;;;;18.66;85.09;96464.66;5109102;28;20188;-55
2021/07/04 00:20:51;;;;;;;4.97;4.57;;;;;;;18.60;85.37;96468.44;5099596;28;20544;-55
2021/07/04 00:23:18;;;;;;;5.23;4.73;;;;;;;18.60;85.33;96463.13;5108023;28;20191;-53
2021/07/04 00:25:44;;;;;;;5.17;4.77;;;;;;;18.50;85.79;96469.31;5106272;28;20199;-53
2021/07/04 00:28:10;;;;;;;5.40;4.90;;;;;;;18.51;86.17;96470.09;5100034;28;20214;-51
2021/07/04 00:30:36;;;;;;;4.90;4.40;;;;;;;18.29;87.35;96478.59;5107877;28;20218;-54
2021/07/04 00:33:03;;;;;;;4.63;4.23;;;;;;;18.58;85.81;96473.25;5101049;28;20189;-59
2021/07/04 00:35:29;;;;;;;5.77;5.10;;;;;;;18.57;85.67;96471.66;5100211;28;20181;-55
2021/07/04 00:37:54;;;;;;;5.20;4.70;;;;;;;18.52;85.76;96469.03;5100899;28;20223;-56
2021/07/04 00:40:21;;;;;;;4.77;4.33;;;;;;;18.53;85.47;96468.75;5105568;28;20529;-55
2021/07/04 00:42:47;;;;;;;5.00;4.50;;;;;;;18.56;85.55;96475.38;5098853;28;20318;-55
2021/07/04 00:45:16;;;;;;;5.37;4.83;;;;;;;18.59;84.81;96477.47;5091606;28;20784;-56
2021/07/04 00:47:42;;;;;;;5.50;5.00;;;;;;;18.55;85.57;96481.78;5102182;28;20214;-55
2021/07/04 00:50:08;;;;;;;4.90;4.40;;;;;;;18.54;85.99;96472.22;5104298;28;20172;-54
2021/07/04 00:52:34;;;;;;;5.50;4.53;;;;;;;18.50;86.20;96461.34;5104586;28;20301;-54
2021/07/04 00:55:00;;;;;;;5.20;4.70;;;;;;;18.65;85.40;96463.88;5103598;28;20176;-56
2021/07/04 00:57:27;;;;;;;5.10;4.33;;;;;;;18.65;85.17;96452.44;5079477;28;20180;-53
2021/07/04 00:59:52;;;;;;;5.13;4.60;;;;;;;18.59;85.29;96446.41;5111452;28;20305;-53
2021/07/04 01:02:17;;;;;;;4.93;4.10;;;;;;;18.66;84.88;96446.88;5100692;28;20268;-51
2021/07/04 01:04:43;;;;;;;5.03;4.63;;;;;;;18.60;85.24;96447.22;5106229;28;20691;-53
2021/07/04 01:07:09;;;;;;;4.73;4.33;;;;;;;18.43;86.06;96445.00;5087596;28;20177;-54
2021/07/04 01:09:35;;;;;;;5.37;4.87;;;;;;;18.55;85.35;96441.97;5098272;28;20212;-50
2021/07/04 01:12:01;;;;;;;5.10;4.67;;;;;;;18.53;85.42;96434.25;5106649;28;20745;-54
2021/07/04 01:14:26;;;;;;;5.93;4.57;;;;;;;18.49;85.54;96438.56;5089562;28;20287;-51
2021/07/04 01:16:52;;;;;;;5.40;4.90;;;;;;;18.31;87.03;96441.97;5096463;28;20176;-53
2021/07/04 01:19:18;;;;;;;5.90;5.30;;;;;;;18.38;86.41;96441.63;5106368;28;20188;-59
2021/07/04 01:21:45;;;;;;;5.43;4.93;;;;;;;18.26;87.07;96436.72;5105602;28;20544;-53
2021/07/04 01:24:11;;;;;;;5.10;4.70;;;;;;;18.29;87.05;96438.78;5106463;28;20188;-50
2021/07/04 01:26:38;;;;;;;5.50;4.67;;;;;;;18.19;87.64;96441.56;5104309;28;20200;-52
2021/07/04 01:29:04;;;;;;;5.03;4.60;;;;;;;18.23;87.21;96439.91;5100633;28;20187;-57
2021/07/04 01:31:30;;;;;;;5.20;4.70;;;;;;;18.14;87.64;96437.13;5098998;28;20185;-54
2021/07/04 01:33:56;;;;;;;5.63;4.97;;;;;;;18.08;88.15;96432.94;5107381;28;20180;-58
2021/07/04 01:36:21;;;;;;;4.53;4.13;;;;;;;18.06;88.40;96432.41;5098433;28;20665;-52
2021/07/04 01:38:47;;;;;;;5.47;4.97;;;;;;;18.05;88.50;96436.16;5089700;28;20688;-55
2021/07/04 01:41:12;;;;;;;6.53;4.80;;;;;;;18.08;88.44;96437.44;5101002;28;20229;-52
2021/07/04 01:43:37;;;;;;;5.67;4.73;;;;;;;18.03;88.56;96440.16;5098429;28;20629;-55
2021/07/04 01:46:03;;;;;;;8.67;4.87;;;;;;;18.07;88.43;96439.31;5107704;28;20195;-58
2021/07/04 01:48:29;;;;;;;4.93;4.53;;;;;;;17.93;89.05;96443.72;5095675;28;20192;-55
2021/07/04 01:50:54;;;;;;;5.03;4.63;;;;;;;18.05;88.46;96444.13;5103039;28;20226;-58
2021/07/04 01:53:20;;;;;;;4.93;4.53;;;;;;;17.92;89.07;96441.34;5099498;28;20184;-52
2021/07/04 01:55:46;;;;;;;5.10;4.70;;;;;;;18.13;87.87;96438.19;5106550;28;20539;-52
2021/07/04 01:58:11;;;;;;;5.50;4.70;;;;;;;18.01;88.49;96437.78;5093571;28;20176;-54
2021/07/04 02:00:38;;;;;;;5.60;5.10;;;;;;;17.91;89.41;96437.91;5095345;28;20684;-52
2021/07/04 02:03:08;;;;;;;4.97;4.57;;;;;;;17.98;88.83;96438.38;5100058;28;20187;-52
2021/07/04 02:05:34;;;;;;;4.93;4.53;;;;;;;18.00;88.53;96436.19;5098644;28;20586;-55
2021/07/04 02:07:59;;;;;;;4.60;4.20;;;;;;;17.99;88.76;96434.66;5099674;28;20186;-53
2021/07/04 02:10:30;;;;;;;5.37;4.90;;;;;;;18.08;87.91;96435.59;5099545;28;20769;-55
2021/07/04 02:12:56;;;;;;;4.77;4.37;;;;;;;17.90;89.07;96427.56;5093146;28;20183;-54
2021/07/04 02:15:24;;;;;;;5.53;5.03;;;;;;;18.02;88.08;96428.75;5090912;28;20195;-50
2021/07/04 02:17:51;;;;;;;4.73;4.33;;;;;;;17.95;88.53;96436.25;5089917;28;20169;-54
2021/07/04 02:20:37;;;;;;;5.80;4.80;;;;;;;18.13;87.37;96434.75;5091622;28;20551;-54
2021/07/04 02:23:03;;;;;;;5.60;4.90;;;;;;;17.96;88.08;96439.69;5105558;28;20208;-54
2021/07/04 02:25:28;;;;;;;5.47;4.97;;;;;;;17.85;88.51;96436.38;5106730;28;20359;-55
2021/07/04 02:27:54;;;;;;;7.17;5.20;;;;;;;17.91;87.97;96437.09;5099027;28;20180;-54
2021/07/04 02:30:19;;;;;;;5.77;5.17;;;;;;;17.79;88.98;96421.59;5108758;28;20259;-55
2021/07/04 02:32:45;;;;;;;7.90;5.50;;;;;;;17.76;89.21;96435.41;5096671;28;20176;-54
2021/07/04 02:35:31;;;;;;;6.40;5.33;;;;;;;17.78;89.21;96427.94;5090453;28;20275;-58
2021/07/04 02:37:57;;;;;;;5.77;4.87;;;;;;;17.72;89.56;96432.50;5020386;28;20604;-54
2021/07/04 02:40:23;;;;;;;5.70;5.10;;;;;;;17.74;89.63;96433.03;5019523;28;20406;-53
2021/07/04 02:42:50;;;;;;;8.77;5.63;;;;;;;17.82;88.75;96432.44;5013568;28;20282;-56
2021/07/04 02:45:15;;;;;;;10.50;6.20;;;;;;;17.75;89.06;96439.91;5025795;28;20675;-55
2021/07/04 02:47:41;;;;;;;6.07;5.47;;;;;;;17.80;89.20;96426.59;5018139;28;20224;-54
2021/07/04 02:50:10;;;;;;;9.47;6.37;;;;;;;17.76;89.65;96430.09;5023242;28;20282;-55
2021/07/04 02:52:35;;;;;;;8.27;5.97;;;;;;;17.85;89.11;96433.72;5017643;28;20245;-53
2021/07/04 02:55:02;;;;;;;6.57;5.77;;;;;;;17.80;89.50;96428.47;5011943;28;20198;-56
2021/07/04 02:57:27;;;;;;;5.97;5.37;;;;;;;17.91;88.98;96422.00;5015308;28;20356;-54
2021/07/04 02:59:53;;;;;;;6.97;5.93;;;;;;;17.78;90.02;96425.31;5031738;28;20640;-53
2021/07/04 03:02:20;;;;;;;6.30;5.70;;;;;;;17.78;90.14;96430.59;5021654;28;20634;-53
2021/07/04 03:04:46;;;;;;;6.33;5.73;;;;;;;17.79;90.39;96427.69;5026462;28;20194;-55
2021/07/04 03:07:11;;;;;;;5.77;5.17;;;;;;;17.74;90.64;96419.78;5012026;28;20182;-58
2021/07/04 03:09:37;;;;;;;5.43;4.93;;;;;;;17.92;89.49;96423.56;5017322;28;20613;-56
2021/07/04 03:12:04;;;;;;;5.50;4.90;;;;;;;17.89;89.68;96418.06;5022517;28;20194;-54
2021/07/04 03:14:29;;;;;;;5.77;5.20;;;;;;;18.04;88.77;96423.19;5047634;28;20184;-56
2021/07/04 03:16:55;;;;;;;5.73;5.13;;;;;;;17.97;89.34;96415.56;5106080;28;20179;-56
2021/07/04 03:19:20;;;;;;;5.60;5.00;;;;;;;17.93;89.78;96419.06;5101482;28;20200;-55
2021/07/04 03:21:45;;;;;;;5.63;4.53;;;;;;;17.93;90.05;96419.84;5102998;28;20185;-54
2021/07/04 03:24:11;;;;;;;6.30;4.73;;;;;;;17.93;90.09;96422.50;5103125;28;20641;-58
2021/07/04 03:26:36;;;;;;;6.37;4.87;;;;;;;17.95;90.05;96427.50;5105080;28;20203;-53
2021/07/04 03:29:02;;;;;;;6.37;5.43;;;;;;;18.04;89.31;96423.97;5097265;28;20659;-55
2021/07/04 03:31:27;;;;;;;6.43;5.23;;;;;;;18.07;89.19;96415.44;5105067;28;20333;-56
2021/07/04 03:33:52;;;;;;;6.47;5.47;;;;;;;18.17;88.58;96417.19;5101074;28;20180;-53
2021/07/04 03:36:18;;;;;;;6.13;5.53;;;;;;;18.14;88.89;96415.09;5102340;28;20184;-54
2021/07/04 03:38:43;;;;;;;5.90;5.40;;;;;;;18.15;88.84;96414.03;5101666;28;20227;-57
2021/07/04 03:41:09;;;;;;;6.10;5.50;;;;;;;18.18;88.87;96416.91;5102772;28;20263;-58
2021/07/04 03:43:34;;;;;;;6.90;5.77;;;;;;;18.18;88.84;96416.91;5108316;28;20187;-55
2021/07/04 03:45:59;;;;;;;6.20;4.87;;;;;;;18.18;88.81;96411.59;5101772;28;20192;-54
2021/07/04 03:48:25;;;;;;;6.80;5.80;;;;;;;18.29;88.65;96418.34;5101160;28;20176;-57
2021/07/04 03:50:50;;;;;;;6.80;5.70;;;;;;;18.33;88.41;96415.16;5101642;28;20184;-54
2021/07/04 03:53:15;;;;;;;6.07;5.13;;;;;;;18.38;88.13;96415.88;5109459;28;20663;-55
2021/07/04 03:55:41;;;;;;;5.47;5.00;;;;;;;18.35;88.35;96415.63;5098940;28;20205;-54
2021/07/04 03:58:06;;;;;;;6.47;5.43;;;;;;;18.43;88.18;96415.03;5104565;28;20514;-55
2021/07/04 04:00:32;;;;;;;6.60;5.17;;;;;;;18.48;88.21;96410.44;5099925;28;20263;-54
2021/07/04 04:02:57;;;;;;;6.77;5.33;;;;;;;18.59;87.87;96406.59;5099703;28;20185;-58
2021/07/04 04:05:22;;;;;;;5.87;5.37;;;;;;;18.65;88.67;96412.63;5101646;28;20287;-55
2021/07/04 04:07:48;;;;;;;6.57;5.20;;;;;;;18.94;87.10;96415.13;5103394;28;20644;-56
2021/07/04 04:10:14;;;;;;;5.30;4.80;;;;;;;19.35;85.32;96416.06;5104762;28;20196;-60
2021/07/04 04:12:41;;;;;;;6.10;4.90;;;;;;;19.74;83.49;96423.66;5078443;28;20571;-54
2021/07/04 04:15:08;;;;;;;5.45;4.90;;;;;;;19.91;82.17;96423.88;5092410;28;20649;-54
2021/07/04 04:17:33;;;;;;;6.97;5.28;;;;;;;20.23;80.65;96422.19;5097058;28;20218;-55
2021/07/04 04:19:59;;;;;;;5.30;4.80;;;;;;;20.07;80.77;96412.94;5095256;28;20180;-51
2021/07/04 04:22:24;;;;;;;5.43;4.53;;;;;;;20.01;81.40;96419.44;5104253;28;20236;-52
2021/07/04 04:24:50;;;;;;;15.50;5.53;;;;;;;19.77;82.42;96422.31;5104397;28;20185;-54
2021/07/04 04:27:16;;;;;;;5.00;4.50;;;;;;;19.85;82.40;96426.94;5108859;28;20201;-54
2021/07/04 04:29:42;;;;;;;5.50;4.97;;;;;;;19.87;81.94;96425.56;5101628;28;20187;-53
2021/07/04 04:32:07;;;;;;;5.15;4.60;;;;;;;19.91;81.66;96420.44;5101082;28;20664;-51
2021/07/04 04:34:33;;;;;;;6.38;4.68;;;;;;;20.04;80.84;96418.88;5100343;28;20184;-52
2021/07/04 04:36:59;;;;;;;5.00;4.50;;;;;;;20.00;81.09;96418.69;5108530;28;20172;-54
2021/07/04 04:39:25;;;;;;;4.72;4.25;;;;;;;20.03;80.62;96420.72;5093939;28;20263;-54
2021/07/04 04:41:51;;;;;;;4.55;4.22;;;;;;;20.23;79.38;96419.53;5100017;28;20636;-54
2021/07/04 04:44:16;;;;;;;4.23;3.87;;;;;;;20.22;78.74;96415.31;5093297;28;20283;-57
2021/07/04 04:46:41;;;;;;;4.88;4.38;;;;;;;20.09;79.15;96408.91;5106746;28;20192;-51
2021/07/04 04:49:08;;;;;;;4.57;4.05;;;;;;;19.98;79.68;96414.72;5075143;28;20620;-54
2021/07/04 04:51:33;;;;;;;6.75;4.50;;;;;;;19.98;79.74;96406.75;5103440;28;20202;-55
2021/07/04 04:53:59;;;;;;;4.30;3.90;;;;;;;19.92;78.39;96414.03;5103849;28;20177;-55
2021/07/04 04:56:24;;;;;;;4.10;3.70;;;;;;;19.86;78.56;96408.00;5099891;28;20188;-54
2021/07/04 04:58:50;;;;;;;4.00;3.63;;;;;;;19.91;78.47;96401.81;5107721;28;20511;-54
2021/07/04 05:01:16;;;;;;;4.03;3.60;;;;;;;19.91;78.49;96399.16;5101379;28;20225;-59
2021/07/04 05:03:41;;;;;;;4.47;4.07;;;;;;;19.91;78.71;96399.16;5106540;28;20254;-54
2021/07/04 05:06:07;;;;;;;5.70;4.20;;;;;;;19.86;79.74;96396.59;5093755;28;20196;-55
2021/07/04 05:08:32;;;;;;;8.65;3.85;;;;;;;19.87;80.25;96392.84;5109885;28;20188;-56
2021/07/04 05:10:57;;;;;;;5.23;4.53;;;;;;;19.83;80.65;96400.63;5107711;28;20277;-55
2021/07/04 05:13:24;;;;;;;5.07;4.57;;;;;;;19.66;81.87;96404.94;5107506;28;20682;-54
2021/07/04 05:15:49;;;;;;;6.55;4.97;;;;;;;19.68;82.25;96403.56;5098863;28;20183;-55
2021/07/04 05:18:15;;;;;;;4.95;4.47;;;;;;;19.70;82.61;96397.94;5101522;28;20180;-58
2021/07/04 05:20:40;;;;;;;5.50;5.00;;;;;;;19.61;83.50;96391.75;5103845;28;20176;-54
2021/07/04 05:23:06;;;;;;;5.47;4.93;;;;;;;19.49;84.48;96389.56;5100791;28;20644;-54
2021/07/04 05:25:31;;;;;;;6.00;5.40;;;;;;;19.53;84.58;96387.88;5101608;28;20279;-55
2021/07/04 05:27:56;;;;;;;6.53;5.03;;;;;;;19.68;84.01;96376.97;5102487;28;20183;-55
2021/07/04 05:30:22;;;;;;;5.27;4.77;;;;;;;19.73;83.93;96371.56;5092837;28;20199;-53
2021/07/04 05:32:47;;;;;;;7.90;5.13;;;;;;;19.82;83.58;96371.66;5103834;28;20203;-53
2021/07/04 05:35:13;;;;;;;4.97;4.55;;;;;;;19.98;82.49;96367.63;5096050;28;20219;-57
2021/07/04 05:37:38;;;;;;;5.38;4.88;;;;;;;20.03;81.98;96364.06;5097179;28;20533;-55
2021/07/04 05:40:11;;;;;;;7.10;5.20;;;;;;;20.20;80.55;96364.25;5102746;28;20553;-54
2021/07/04 05:42:37;;;;;;;4.97;4.53;;;;;;;20.43;79.28;96359.81;5092323;28;20267;-52
2021/07/04 05:45:08;;;;;;;4.57;4.10;;;;;;;20.85;77.59;96359.38;5107876;28;20299;-54
2021/07/04 05:47:33;;;;;;;4.38;4.03;;;;;;;21.33;74.90;96361.44;5095538;28;20192;-54
2021/07/04 05:49:58;;;;;;;4.28;3.97;;;;;;;21.61;73.75;96362.84;5101879;28;20180;-56
2021/07/04 05:52:24;;;;;;;4.15;3.85;;;;;;;21.90;71.82;96368.44;5088874;28;20645;-56
2021/07/04 05:54:49;;;;;;;3.72;3.28;;;;;;;22.34;69.48;96364.84;5104258;28;20187;-55
2021/07/04 05:57:15;;;;;;;3.72;3.42;;;;;;;22.60;68.68;96366.75;5095720;28;20188;-61
2021/07/04 05:59:41;;;;;;;4.00;3.67;;;;;;;22.66;67.08;96360.16;5092573;28;20183;-55
2021/07/04 06:02:07;;;;;;;4.10;3.67;;;;;;;22.87;66.30;96357.66;5098023;28;20258;-56
2021/07/04 06:04:32;;;;;;;4.22;3.60;;;;;;;22.65;66.54;96354.03;5091610;28;20187;-54
2021/07/04 06:06:58;;;;;;;4.05;3.20;;;;;;;22.61;66.71;96354.97;5100584;28;20212;-54
2021/07/04 06:09:23;;;;;;;4.28;3.75;;;;;;;22.40;67.30;96366.25;5092070;28;20206;-56
2021/07/04 06:11:49;;;;;;;3.50;3.25;;;;;;;22.26;67.86;96370.94;5109775;28;20191;-53
2021/07/04 06:14:15;;;;;;;3.95;3.60;;;;;;;22.35;68.20;96366.41;5089809;28;20640;-59
2021/07/04 06:16:41;;;;;;;4.10;3.38;;;;;;;22.54;66.72;96352.75;5104817;28;20200;-54
2021/07/04 06:19:06;;;;;;;4.22;3.60;;;;;;;22.61;66.63;96354.97;5090053;28;20192;-57
2021/07/04 06:21:32;;;;;;;2.95;2.65;;;;;;;22.72;65.70;96359.72;5096920;28;20542;-58
2021/07/04 06:23:57;;;;;;;3.55;3.25;;;;;;;22.95;64.92;96357.69;5104023;28;20590;-59
2021/07/04 06:26:23;;;;;;;2.92;2.58;;;;;;;23.16;63.60;96355.13;5101336;28;20549;-57
2021/07/04 06:28:48;;;;;;;3.88;2.88;;;;;;;23.55;62.68;96356.78;5093882;28;20228;-59
2021/07/04 06:31:13;;;;;;;3.45;3.15;;;;;;;23.82;61.28;96358.25;5099193;28;20192;-60
2021/07/04 06:33:39;;;;;;;3.72;3.20;;;;;;;23.88;61.44;96356.97;5100208;28;20220;-59
2021/07/04 06:36:04;;;;;;;3.67;2.83;;;;;;;24.05;60.80;96343.50;5110284;28;21937;-58
2021/07/04 06:38:30;;;;;;;8.48;3.20;;;;;;;24.25;59.69;96342.00;5108157;28;20224;-60
2021/07/04 06:40:55;;;;;;;3.63;3.08;;;;;;;24.67;58.45;96345.50;5112660;28;20216;-59
2021/07/04 06:43:21;;;;;;;3.22;3.00;;;;;;;24.72;58.74;96342.63;5109185;28;20211;-59
2021/07/04 06:45:46;;;;;;;4.20;3.13;;;;;;;24.82;58.53;96343.00;5093573;28;20243;-59
2021/07/04 06:48:12;;;;;;;4.40;3.05;;;;;;;24.89;57.99;96353.22;5095323;28;20174;-58
2021/07/04 06:50:37;;;;;;;3.42;3.10;;;;;;;24.76;58.31;96348.88;5092912;28;20187;-58
2021/07/04 06:53:03;;;;;;;4.18;2.90;;;;;;;24.96;57.35;96352.72;5100264;28;20215;-58
2021/07/04 06:55:28;;;;;;;3.30;2.85;;;;;;;25.06;57.43;96361.13;5098962;28;20187;-59
2021/07/04 06:57:53;;;;;;;4.28;3.30;;;;;;;25.26;56.64;96367.56;5099233;28;20257;-60
2021/07/04 07:00:19;;;;;;;2.90;2.70;;;;;;;25.75;55.11;96362.31;5108207;28;20188;-60
2021/07/04 07:02:45;;;;;;;5.75;2.90;;;;;;;25.91;55.10;96374.78;5101671;28;20392;-59
2021/07/04 07:05:12;;;;;;;3.15;2.95;;;;;;;26.16;54.09;96372.84;5104970;28;20188;-59
2021/07/04 07:07:38;;;;;;;2.78;2.50;;;;;;;26.34;53.48;96371.53;5102126;28;20191;-58
2021/07/04 07:10:09;;;;;;;3.38;3.08;;;;;;;26.59;52.73;96364.19;5106003;28;20195;-58
2021/07/04 07:12:35;;;;;;;3.03;2.75;;;;;;;26.67;51.95;96370.59;5108789;28;20779;-60
2021/07/04 07:15:01;;;;;;;2.92;2.70;;;;;;;26.48;52.66;96371.16;5107268;28;20176;-59
2021/07/04 07:17:26;;;;;;;5.50;2.83;;;;;;;26.31;53.24;96369.50;5099112;28;20184;-59
2021/07/04 07:19:53;;;;;;;3.45;2.70;;;;;;;26.41;52.43;96365.59;5095387;28;20279;-59
2021/07/04 07:22:19;;;;;;;2.90;2.45;;;;;;;26.34;52.39;96358.09;5102003;28;20230;-59
2021/07/04 07:24:45;;;;;;;5.32;3.00;;;;;;;26.35;52.52;96357.00;5102053;28;20187;-59
2021/07/04 07:27:11;;;;;;;2.60;2.40;;;;;;;26.29;52.68;96349.50;5097369;28;20180;-57
2021/07/04 07:29:36;;;;;;;3.72;2.88;;;;;;;26.71;51.10;96342.66;5103344;28;20177;-58
2021/07/04 07:32:02;;;;;;;3.20;3.00;;;;;;;26.86;50.64;96341.94;5091444;28;20199;-59
2021/07/04 07:34:27;;;;;;;2.90;2.70;;;;;;;27.07;50.24;96341.78;5091552;28;20215;-57
2021/07/04 07:36:53;;;;;;;3.17;2.97;;;;;;;27.14;49.26;96339.28;5099338;28;21215;-58
2021/07/04 07:39:18;;;;;;;3.20;2.95;;;;;;;26.79;50.46;96341.75;5105070;28;20232;-59
2021/07/04 07:41:44;;;;;;;3.53;3.03;;;;;;;26.78;50.47;96332.13;5098787;28;20180;-57
2021/07/04 07:44:12;;;;;;;3.45;3.13;;;;;;;26.70;50.70;96324.16;5093277;28;20177;-59
2021/07/04 07:46:37;;;;;;;3.25;2.95;;;;;;;26.68;50.39;96318.38;5107495;28;21111;-60
2021/07/04 07:49:04;;;;;;;4.00;2.90;;;;;;;26.73;49.94;96307.38;5103068;28;20198;-58
2021/07/04 07:51:29;;;;;;;2.80;2.60;;;;;;;26.86;49.81;96306.97;5108732;28;20173;-59
2021/07/04 07:53:55;;;;;;;2.97;2.63;;;;;;;26.97;49.18;96303.84;5100869;28;20191;-58
2021/07/04 07:56:20;;;;;;;4.97;3.25;;;;;;;27.04;48.78;96287.88;5108840;28;20274;-58
2021/07/04 07:58:45;;;;;;;3.10;2.83;;;;;;;26.96;48.82;96294.97;5094516;28;20233;-58
2021/07/04 08:01:15;;;;;;;3.60;3.30;;;;;;;25.99;50.74;96292.50;5107348;28;20275;-56
2021/07/04 08:03:40;;;;;;;4.15;3.30;;;;;;;25.93;51.44;96294.63;5088278;28;20188;-57
2021/07/04 08:06:05;;;;;;;4.13;3.17;;;;;;;25.81;52.14;96301.91;5102200;28;20250;-56
2021/07/04 08:08:31;;;;;;;3.55;3.25;;;;;;;25.21;53.03;96309.53;5103671;28;20276;-57
2021/07/04 08:10:56;;;;;;;3.65;2.95;;;;;;;25.34;53.68;96306.88;5100346;28;20184;-59
2021/07/04 08:13:22;;;;;;;3.60;3.30;;;;;;;25.10;54.35;96302.22;5098497;28;20245;-60
2021/07/04 08:15:47;;;;;;;3.55;3.10;;;;;;;25.15;53.78;96302.00;5103217;28;20537;-59
2021/07/04 08:18:12;;;;;;;3.40;3.10;;;;;;;25.55;53.23;96311.03;5109038;28;20192;-60
2021/07/04 08:20:38;;;;;;;4.10;3.80;;;;;;;25.02;53.59;96297.75;5091147;28;20208;-58
2021/07/04 08:23:03;;;;;;;3.83;3.42;;;;;;;24.28;56.01;96299.28;5099821;28;20213;-59
2021/07/04 08:25:29;;;;;;;4.32;3.65;;;;;;;24.20;56.37;96302.78;5106569;28;20199;-58
2021/07/04 08:27:54;;;;;;;4.85;3.08;;;;;;;24.29;56.61;96295.50;5096565;28;20671;-59
2021/07/04 08:30:20;;;;;;;4.13;3.13;;;;;;;24.62;55.39;96295.56;5109314;28;20199;-61
2021/07/04 08:32:46;;;;;;;4.80;3.33;;;;;;;25.26;54.51;96295.09;5105710;28;20648;-57
2021/07/04 08:35:12;;;;;;;3.28;3.08;;;;;;;25.72;51.62;96293.19;5101967;28;20180;-56
2021/07/04 08:37:37;;;;;;;2.88;2.67;;;;;;;25.55;52.77;96302.19;5107701;28;20290;-57
2021/07/04 08:40:07;;;;;;;3.15;2.88;;;;;;;25.51;52.54;96301.31;5099210;28;20656;-59
2021/07/04 08:42:33;;;;;;;3.20;2.97;;;;;;;25.83;52.00;96303.13;5091558;28;20181;-58
2021/07/04 08:44:58;;;;;;;3.35;3.03;;;;;;;26.13;51.17;96305.59;5090936;28;20195;-58
2021/07/04 08:47:24;;;;;;;3.38;3.08;;;;;;;26.28;51.20;96303.00;5088129;28;20667;-59
2021/07/04 08:49:52;;;;;;;3.50;2.80;;;;;;;26.38;50.60;96302.53;5094026;28;20275;-59
2021/07/04 08:52:19;;;;;;;4.32;3.42;;;;;;;26.40;50.09;96313.75;5095487;28;20603;-54
2021/07/04 08:54:45;;;;;;;3.47;3.17;;;;;;;26.07;50.94;96300.44;5105079;28;20187;-54
2021/07/04 08:57:11;;;;;;;3.72;3.08;;;;;;;25.96;51.77;96306.63;5099444;28;20196;-56
2021/07/04 08:59:38;;;;;;;3.35;3.05;;;;;;;26.17;51.08;96295.72;5098372;28;20728;-54
2021/07/04 09:02:05;;;;;;;3.78;3.47;;;;;;;25.97;50.32;96308.19;5100802;28;20287;-53
2021/07/04 09:04:30;;;;;;;2.75;2.55;;;;;;;26.28;49.46;96302.22;5093261;28;20188;-52
2021/07/04 09:06:56;;;;;;;2.72;2.53;;;;;;;26.81;48.15;96299.16;5101191;28;20250;-54
2021/07/04 09:09:29;;;;;;;2.65;2.45;;;;;;;26.78;47.39;96285.59;5107058;28;20575;-50
2021/07/04 09:12:10;;;;;;;3.28;2.20;;;;;;;26.68;46.68;96292.25;5103423;28;20547;-56
2021/07/04 09:14:46;;;;;;;2.20;2.00;;;;;;;26.47;46.54;96294.34;5091916;28;20180;-55
2021/07/04 09:17:15;;;;;;;2.95;2.33;;;;;;;27.17;45.86;96292.84;5107071;28;20183;-53
2021/07/04 09:19:53;;;;;;;2.53;2.33;;;;;;;27.51;45.98;96288.75;5098485;28;20187;-56
2021/07/04 09:22:29;;;;;;;3.35;2.60;;;;;;;27.55;46.24;96284.22;5107967;28;20183;-58
2021/07/04 09:25:08;;;;;;;2.65;2.45;;;;;;;27.78;44.39;96286.28;5095143;28;20543;-51
2021/07/04 09:27:33;;;;;;;2.33;2.22;;;;;;;27.27;45.86;96278.88;5104074;28;20232;-53
2021/07/04 09:29:59;;;;;;;3.22;2.92;;;;;;;27.12;46.48;96281.56;5091929;28;20196;-51
2021/07/04 09:32:26;;;;;;;2.78;2.58;;;;;;;27.19;46.32;96273.66;5099162;28;20180;-54
2021/07/04 09:35:04;;;;;;;3.10;2.45;;;;;;;26.86;47.75;96277.38;5093078;28;20204;-53
2021/07/04 09:37:35;;;;;;;2.72;2.53;;;;;;;26.84;47.02;96266.19;5104464;28;20205;-54
2021/07/04 09:40:22;;;;;;;2.85;2.60;;;;;;;26.27;48.42;96269.19;5103784;28;20223;-54
2021/07/04 09:42:58;;;;;;;2.65;2.25;;;;;;;26.34;49.23;96263.25;5110387;28;20266;-55
2021/07/04 09:45:26;;;;;;;3.70;2.55;;;;;;;26.52;48.87;96245.72;5099141;28;20250;-61
2021/07/04 09:47:57;;;;;;;2.72;2.47;;;;;;;27.04;47.50;96244.81;5096894;28;20188;-59
2021/07/04 09:50:24;;;;;;;5.75;2.42;;;;;;;27.78;45.72;96240.50;5092812;28;20191;-59
2021/07/04 09:53:00;;;;;;;2.75;2.50;;;;;;;28.47;44.40;96243.19;5092205;28;20251;-58
2021/07/04 09:55:27;;;;;;;3.50;2.55;;;;;;;28.58;43.56;96238.00;5070223;28;20222;-59
2021/07/04 09:58:07;;;;;;;7.22;3.67;;;;;;;28.48;42.95;96233.16;5096927;28;20196;-59
2021/07/04 10:00:35;;;;;;;4.72;2.95;;;;;;;28.60;42.35;96234.94;5107957;28;20258;-59
2021/07/04 10:03:16;;;;;;;8.57;4.35;;;;;;;29.10;42.44;96240.13;5099301;28;20188;-59
2021/07/04 10:05:54;;;;;;;3.53;2.90;;;;;;;29.17;42.56;96229.47;5107578;28;20199;-59
2021/07/04 10:08:27;;;;;;;2.88;2.63;;;;;;;29.21;41.73;96221.41;5097647;28;20207;-60
2021/07/04 10:11:00;;;;;;;2.30;2.10;;;;;;;29.51;41.30;96230.44;5103238;28;20621;-59
2021/07/04 10:13:27;;;;;;;3.28;2.05;;;;;;;29.45;40.86;96220.31;5095721;28;20265;-60
2021/07/04 10:15:53;;;;;;;3.35;2.40;;;;;;;29.91;39.79;96223.72;5107319;28;20521;-59
2021/07/04 10:18:19;;;;;;;2.35;2.15;;;;;;;29.64;39.87;96217.53;5088464;28;20647;-60
2021/07/04 10:20:46;;;;;;;2.45;2.13;;;;;;;29.28;40.78;96218.84;5101073;28;20263;-59
2021/07/04 10:23:13;;;;;;;2.25;2.05;;;;;;;29.04;41.85;96211.88;5102007;28;20241;-59
2021/07/04 10:25:42;;;;;;;2.33;2.22;;;;;;;28.91;41.52;96218.59;5092511;28;20253;-59
2021/07/04 10:28:08;;;;;;;2.15;2.05;;;;;;;28.91;41.61;96208.59;5088581;28;20611;-59
2021/07/04 10:30:34;;;;;;;2.28;2.10;;;;;;;28.28;43.33;96208.13;5097413;28;20208;-59
2021/07/04 10:33:13;;;;;;;2.42;2.22;;;;;;;28.52;43.21;96207.06;5105028;28;20598;-58
2021/07/04 10:36:02;;;;;;;2.22;2.10;;;;;;;28.81;42.46;96211.84;5096949;28;20266;-59
2021/07/04 10:38:49;;;;;;;2.35;2.17;;;;;;;28.94;42.05;96205.16;5098791;28;20231;-59
2021/07/04 10:41:19;;;;;;;2.30;2.08;;;;;;;29.22;41.35;96214.88;5104536;28;21620;-61
2021/07/04 10:43:53;;;;;;;2.45;2.25;;;;;;;29.37;41.46;96215.94;5104460;28;20220;-60
2021/07/04 10:46:38;;;;;;;2.42;2.15;;;;;;;28.97;41.57;96209.06;5094950;28;20212;-59
2021/07/04 10:49:13;;;;;;;3.15;2.17;;;;;;;29.07;41.57;96205.78;5088438;28;20188;-59
2021/07/04 10:52:01;;;;;;;2.15;1.95;;;;;;;29.06;41.66;96198.03;5097267;28;20628;-60
2021/07/04 10:54:39;;;;;;;2.63;2.00;;;;;;;28.90;42.25;96193.53;5101350;28;20660;-59
2021/07/04 10:57:25;;;;;;;2.10;2.00;;;;;;;29.22;40.97;96188.66;5077057;28;20188;-60
2021/07/04 11:00:10;;;;;;;2.42;1.98;;;;;;;29.51;40.95;96189.16;5107179;28;20176;-59
2021/07/04 11:02:49;;;;;;;2.38;2.17;;;;;;;29.60;39.90;96185.03;5099134;28;20281;-58
2021/07/04 11:05:40;;;;;;;2.15;2.05;;;;;;;29.57;40.47;96187.69;5101882;28;20248;-61
2021/07/04 11:08:12;;;;;;;2.13;1.95;;;;;;;29.47;40.76;96180.22;5099862;28;20175;-59
2021/07/04 11:10:50;;;;;;;2.13;2.03;;;;;;;29.56;41.03;96178.03;5101131;28;20235;-59
2021/07/04 11:13:16;;;;;;;9.38;2.20;;;;;;;29.75;40.25;96176.00;5108828;28;20256;-60
2021/07/04 11:15:49;;;;;;;2.25;2.05;;;;;;;30.02;40.05;96176.00;5096659;28;20259;-59
2021/07/04 11:18:15;;;;;;;2.08;1.88;;;;;;;30.46;38.85;96165.31;5100715;28;20261;-61
2021/07/04 11:20:41;;;;;;;3.83;2.17;;;;;;;30.62;38.30;96160.50;5101976;28;20188;-59
2021/07/04 11:23:08;;;;;;;1.90;1.80;;;;;;;30.90;37.60;96159.97;5113164;28;20508;-59
2021/07/04 11:25:54;;;;;;;2.05;1.95;;;;;;;30.86;36.94;96154.56;5097483;28;20805;-59
2021/07/04 11:28:24;;;;;;;1.90;1.80;;;;;;;30.95;37.01;96135.28;5100118;28;20195;-60
2021/07/04 11:30:54;;;;;;;2.40;2.20;;;;;;;30.75;37.91;96125.81;5093779;28;20241;-60
2021/07/04 11:33:37;;;;;;;1.92;1.83;;;;;;;31.05;36.41;96120.28;5096856;28;20552;-60
2021/07/04 11:36:15;;;;;;;2.00;1.90;;;;;;;31.58;35.37;96123.41;5085373;28;20240;-60